CGMPW PAJN-PAJN
Flight info
| Callsign | CGMPW |
|---|---|
| Flight time | 0h 11m |
| Altitude | 1200 |
| Route | VFR IN JUNEAU AREA / |
| Aircraft | AS50/L-VGD/A |
Departure
| Time | 2026-05-06 01:52 |
|---|---|
| Airport | Juneau International Airport (PAJN) |
Arrival
| Time | 2026-05-06 02:04 |
|---|---|
| Airport | Juneau International Airport (PAJN) |
| Time | Latitude | Longitude | Altitude | Speed | Heading |
|---|---|---|---|---|---|
| 2026-05-06 01:47 | 58.35571 | -134.56108 | 27 ft | 0 kts | 306° |
| 2026-05-06 01:51 | 58.35569 | -134.56095 | 156 ft | 1 kts | 291° |
| 2026-05-06 01:51 | 58.35567 | -134.56085 | 272 ft | 1 kts | 287° |
| 2026-05-06 01:52 | 58.35634 | -134.56249 | 417 ft | 66 kts | 299° |
| 2026-05-06 01:52 | 58.36248 | -134.56919 | 418 ft | 121 kts | 323° |
| 2026-05-06 01:52 | 58.36997 | -134.57902 | 402 ft | 145 kts | 335° |
| 2026-05-06 01:52 | 58.37942 | -134.57762 | 700 ft | 134 kts | 22° |
| 2026-05-06 01:53 | 58.38805 | -134.57035 | 865 ft | 140 kts | 17° |
| 2026-05-06 01:53 | 58.39798 | -134.56434 | 832 ft | 152 kts | 15° |
| 2026-05-06 01:53 | 58.40824 | -134.55653 | 565 ft | 162 kts | 25° |
| 2026-05-06 01:53 | 58.41887 | -134.54926 | 482 ft | 165 kts | 12° |
| 2026-05-06 01:54 | 58.42696 | -134.55530 | 694 ft | 121 kts | 274° |
| 2026-05-06 01:54 | 58.42298 | -134.56898 | 580 ft | 131 kts | 236° |
| 2026-05-06 01:54 | 58.41771 | -134.58368 | 458 ft | 138 kts | 234° |
| 2026-05-06 01:54 | 58.41184 | -134.59750 | 477 ft | 131 kts | 231° |
| 2026-05-06 01:55 | 58.40566 | -134.60917 | 458 ft | 125 kts | 220° |
| 2026-05-06 01:55 | 58.39866 | -134.61908 | 459 ft | 121 kts | 216° |
| 2026-05-06 01:55 | 58.39212 | -134.63030 | 403 ft | 126 kts | 231° |
| 2026-05-06 01:55 | 58.38785 | -134.64448 | 425 ft | 119 kts | 234° |
| 2026-05-06 01:56 | 58.38062 | -134.65229 | 251 ft | 123 kts | 205° |
| 2026-05-06 01:56 | 58.37281 | -134.65755 | 159 ft | 116 kts | 201° |
| 2026-05-06 01:56 | 58.36512 | -134.66175 | 113 ft | 111 kts | 201° |
| 2026-05-06 01:56 | 58.35793 | -134.66541 | 98 ft | 106 kts | 195° |
| 2026-05-06 01:57 | 58.35159 | -134.65791 | 38 ft | 127 kts | 139° |
| 2026-05-06 01:57 | 58.34520 | -134.64749 | 86 ft | 118 kts | 150° |
| 2026-05-06 01:57 | 58.33984 | -134.63520 | 83 ft | 127 kts | 123° |
| 2026-05-06 01:57 | 58.33929 | -134.61853 | 123 ft | 130 kts | 84° |
| 2026-05-06 01:58 | 58.34126 | -134.60142 | 99 ft | 133 kts | 79° |
| 2026-05-06 01:58 | 58.34342 | -134.58429 | 82 ft | 135 kts | 78° |
| 2026-05-06 01:58 | 58.34501 | -134.56670 | 51 ft | 135 kts | 85° |
| 2026-05-06 01:58 | 58.34637 | -134.54921 | 59 ft | 134 kts | 88° |
| 2026-05-06 01:59 | 58.34562 | -134.53193 | 79 ft | 131 kts | 104° |
| 2026-05-06 01:59 | 58.34177 | -134.51728 | 101 ft | 121 kts | 137° |
| 2026-05-06 01:59 | 58.33641 | -134.50455 | 81 ft | 125 kts | 136° |
| 2026-05-06 01:59 | 58.33091 | -134.49196 | 86 ft | 124 kts | 137° |
| 2026-05-06 02:00 | 58.32540 | -134.47924 | 89 ft | 123 kts | 140° |
| 2026-05-06 02:00 | 58.31964 | -134.46721 | 54 ft | 125 kts | 141° |
| 2026-05-06 02:00 | 58.31358 | -134.45584 | 42 ft | 123 kts | 144° |
| 2026-05-06 02:00 | 58.30783 | -134.44378 | 74 ft | 121 kts | 139° |
| 2026-05-06 02:01 | 58.30221 | -134.43182 | 83 ft | 123 kts | 141° |
| 2026-05-06 02:01 | 58.30244 | -134.42546 | 449 ft | 97 kts | 334° |
| 2026-05-06 02:01 | 58.30892 | -134.43642 | 273 ft | 139 kts | 304° |
| 2026-05-06 02:01 | 58.31574 | -134.44982 | 336 ft | 134 kts | 320° |
| 2026-05-06 02:02 | 58.32359 | -134.45858 | 182 ft | 126 kts | 327° |
| 2026-05-06 02:02 | 58.32950 | -134.46969 | 145 ft | 119 kts | 311° |
| 2026-05-06 02:02 | 58.33487 | -134.48089 | 69 ft | 105 kts | 308° |
| 2026-05-06 02:02 | 58.33935 | -134.49082 | 52 ft | 102 kts | 308° |
| 2026-05-06 02:03 | 58.34589 | -134.49703 | 217 ft | 114 kts | 337° |
| 2026-05-06 02:03 | 58.35141 | -134.50551 | 330 ft | 105 kts | 287° |
| 2026-05-06 02:03 | 58.35333 | -134.52025 | 152 ft | 124 kts | 282° |
| 2026-05-06 02:03 | 58.35503 | -134.53654 | 151 ft | 127 kts | 281° |
| 2026-05-06 02:04 | 58.35739 | -134.55247 | 204 ft | 126 kts | 284° |
| 2026-05-06 02:04 | 58.35779 | -134.56393 | 226 ft | 35 kts | 257° |
| 2026-05-06 02:04 | 58.35772 | -134.56328 | 96 ft | 12 kts | 122° |
| 2026-05-06 02:04 | 58.35714 | -134.56169 | 47 ft | 17 kts | 140° |
| 2026-05-06 02:05 | 58.35615 | -134.56121 | 48 ft | 23 kts | 198° |
| 2026-05-06 02:05 | 58.35542 | -134.56092 | 27 ft | 0 kts | 94° |